createdAt,value
2022-09-04T00:00:22.174Z,75.44
2022-09-04T00:02:48.549Z,75.28
2022-09-04T00:05:19.048Z,74.98
2022-09-04T00:07:41.287Z,75.05
2022-09-04T00:10:07.647Z,74.87
2022-09-04T00:12:34.041Z,75.20
2022-09-04T00:15:00.415Z,75.05
2022-09-04T00:17:26.820Z,75.04
2022-09-04T00:19:53.199Z,74.58
2022-09-04T00:22:19.680Z,74.71
2022-09-04T00:24:46.070Z,74.70
2022-09-04T00:27:12.443Z,74.55
2022-09-04T00:29:38.814Z,74.64
2022-09-04T00:32:05.180Z,74.98
2022-09-04T00:34:31.641Z,74.78
2022-09-04T00:36:58.009Z,74.36
2022-09-04T00:39:24.431Z,74.67
2022-09-04T00:41:50.761Z,75.05
2022-09-04T00:44:17.179Z,75.31
2022-09-04T00:46:43.611Z,75.22
2022-09-04T00:49:10.036Z,75.04
2022-09-04T00:51:36.474Z,74.91
2022-09-04T00:54:02.854Z,74.73
2022-09-04T00:56:29.218Z,74.98
2022-09-04T00:58:55.620Z,74.87
2022-09-04T01:01:22.152Z,75.04
2022-09-04T01:03:48.404Z,75.11
2022-09-04T01:06:14.745Z,74.93
2022-09-04T01:08:41.111Z,75.57
2022-09-04T01:11:07.480Z,75.67
2022-09-04T01:13:33.964Z,75.50
2022-09-04T01:16:00.417Z,75.59
2022-09-04T01:18:26.711Z,75.83
2022-09-04T01:20:53.170Z,75.61
2022-09-04T01:23:19.573Z,75.72
2022-09-04T01:25:45.958Z,75.93
2022-09-04T01:28:12.457Z,76.03
2022-09-04T01:30:38.840Z,76.39
2022-09-04T01:33:05.216Z,76.20
2022-09-04T01:35:31.624Z,76.13
2022-09-04T01:37:58.005Z,76.09
2022-09-04T01:40:35.197Z,76.07
2022-09-04T01:42:50.853Z,76.62
2022-09-04T01:45:17.289Z,77.09
2022-09-04T01:47:43.652Z,77.26
2022-09-04T01:50:10.023Z,77.89
2022-09-04T01:52:36.390Z,78.34
2022-09-04T01:55:02.749Z,78.42
2022-09-04T01:57:29.116Z,78.59
2022-09-04T01:59:55.486Z,78.05
2022-09-04T02:02:21.921Z,77.80
2022-09-04T02:04:48.333Z,77.66
2022-09-04T02:07:14.698Z,77.35
2022-09-04T02:09:41.106Z,77.50
2022-09-04T02:12:08.775Z,77.38
2022-09-04T02:14:33.922Z,77.14
2022-09-04T02:17:00.284Z,77.44
2022-09-04T02:19:26.726Z,77.45
2022-09-04T02:21:53.090Z,77.59
2022-09-04T02:24:19.496Z,77.50
2022-09-04T02:26:45.933Z,77.43
2022-09-04T02:29:12.295Z,77.46
2022-09-04T02:31:38.740Z,77.47
2022-09-04T02:34:05.140Z,77.37
2022-09-04T02:36:31.507Z,77.80
2022-09-04T02:38:57.996Z,77.94
2022-09-04T02:41:24.420Z,77.93
2022-09-04T02:43:50.789Z,77.77
2022-09-04T02:46:17.226Z,77.59
2022-09-04T02:48:43.584Z,77.41
2022-09-04T02:51:09.959Z,77.59
2022-09-04T02:53:36.363Z,77.93
2022-09-04T02:56:02.734Z,78.14
2022-09-04T02:58:29.154Z,78.23
2022-09-04T03:00:55.548Z,78.30
2022-09-04T03:03:21.907Z,78.54
2022-09-04T03:05:48.263Z,78.87
2022-09-04T03:08:14.655Z,79.12
2022-09-04T03:10:41.023Z,79.02
2022-09-04T03:13:07.444Z,79.05
2022-09-04T03:15:33.822Z,79.29
2022-09-04T03:18:00.185Z,79.42
2022-09-04T03:20:26.640Z,79.55
2022-09-04T03:22:53.076Z,79.86
2022-09-04T03:25:19.435Z,79.89
2022-09-04T03:27:45.840Z,79.99
2022-09-04T03:30:12.267Z,80.09
2022-09-04T03:32:38.703Z,80.29
2022-09-04T03:35:05.070Z,80.41
2022-09-04T03:37:31.468Z,80.33
2022-09-04T03:39:57.899Z,80.48
2022-09-04T03:42:24.201Z,80.39
2022-09-04T03:44:52.323Z,80.23
2022-09-04T03:47:17.095Z,80.47
2022-09-04T03:49:43.522Z,80.85
2022-09-04T03:52:09.891Z,80.95
2022-09-04T03:54:36.397Z,81.04
2022-09-04T03:57:02.779Z,81.03
2022-09-04T03:59:29.261Z,80.96
2022-09-04T04:01:55.665Z,81.04
2022-09-04T04:04:22.053Z,81.18
2022-09-04T04:06:48.417Z,81.27
2022-09-04T04:09:14.890Z,81.58
2022-09-04T04:11:43.436Z,81.87
2022-09-04T04:14:07.639Z,82.07
2022-09-04T04:16:34.097Z,82.23
2022-09-04T04:19:00.827Z,82.06
2022-09-04T04:21:27.253Z,81.96
2022-09-04T04:23:53.687Z,81.84
2022-09-04T04:26:20.125Z,81.94
2022-09-04T04:28:46.554Z,82.15
2022-09-04T04:31:13.080Z,82.16
2022-09-04T04:33:39.326Z,82.24
2022-09-04T04:36:05.702Z,82.51
2022-09-04T04:38:32.077Z,82.59
2022-09-04T04:40:58.518Z,82.45
2022-09-04T04:43:24.917Z,82.43
2022-09-04T04:45:51.281Z,82.45
2022-09-04T04:48:17.706Z,82.46
2022-09-04T04:50:44.070Z,82.40
2022-09-04T04:53:10.481Z,82.24
2022-09-04T04:55:36.847Z,82.58
2022-09-04T04:58:03.215Z,82.76
2022-09-04T05:00:29.580Z,82.75
2022-09-04T05:02:56.067Z,82.82
2022-09-04T05:05:22.367Z,82.84
2022-09-04T05:07:48.773Z,82.93
2022-09-04T05:10:15.174Z,83.07
2022-09-04T05:12:41.655Z,83.10
2022-09-04T05:15:08.009Z,83.22
2022-09-04T05:17:34.377Z,83.13
2022-09-04T05:20:00.743Z,83.00
2022-09-04T05:22:30.399Z,83.21
2022-09-04T05:24:54.060Z,83.23
2022-09-04T05:27:20.064Z,83.19
2022-09-04T05:29:46.446Z,83.23
2022-09-04T05:32:12.835Z,83.05
2022-09-04T05:34:39.194Z,83.05
2022-09-04T05:37:05.673Z,83.06
2022-09-04T05:39:32.018Z,83.02
2022-09-04T05:41:59.163Z,82.96
2022-09-04T05:44:24.734Z,83.01
2022-09-04T05:46:51.823Z,83.07
2022-09-04T05:49:17.516Z,82.76
2022-09-04T05:51:43.940Z,82.66
2022-09-04T05:54:10.299Z,83.02
2022-09-04T05:56:36.720Z,83.10
2022-09-04T05:59:03.150Z,83.13
2022-09-04T06:01:29.628Z,83.14
2022-09-04T06:03:55.944Z,83.01
2022-09-04T06:06:22.346Z,83.07
2022-09-04T06:08:48.728Z,82.78
2022-09-04T06:11:15.116Z,82.39
2022-09-04T06:13:41.546Z,82.11
2022-09-04T06:16:08.290Z,82.12
2022-09-04T06:18:34.600Z,82.28
2022-09-04T06:21:01.000Z,81.59
2022-09-04T06:23:27.434Z,81.69
2022-09-04T06:25:54.014Z,81.99
2022-09-04T06:28:20.433Z,82.24
2022-09-04T06:30:47.027Z,82.16
2022-09-04T06:33:13.411Z,82.20
2022-09-04T06:35:39.854Z,82.23
2022-09-04T06:38:06.278Z,82.17
2022-09-04T06:40:32.661Z,82.97
2022-09-04T06:42:59.098Z,83.11
2022-09-04T06:45:25.590Z,83.00
2022-09-04T06:47:51.983Z,82.79
2022-09-04T06:50:18.368Z,82.47
2022-09-04T06:52:44.737Z,82.09
2022-09-04T06:55:11.107Z,81.66
2022-09-04T06:57:37.531Z,81.93
2022-09-04T07:00:03.919Z,81.45
2022-09-04T07:02:30.339Z,80.52
2022-09-04T07:04:56.682Z,79.77
2022-09-04T07:07:23.062Z,79.31
2022-09-04T07:09:49.426Z,78.44
2022-09-04T07:12:15.816Z,77.47
2022-09-04T07:14:42.183Z,76.29
2022-09-04T07:17:08.601Z,75.49
2022-09-04T07:19:34.973Z,74.85
2022-09-04T07:22:01.332Z,70.79
2022-09-04T07:24:27.707Z,68.54
2022-09-04T07:26:54.066Z,68.04
2022-09-04T07:29:25.118Z,68.36
2022-09-04T07:31:46.902Z,67.21
2022-09-04T07:34:13.202Z,65.06
2022-09-04T07:36:39.627Z,64.74
2022-09-04T07:39:06.040Z,64.66
2022-09-04T07:41:32.405Z,63.05
2022-09-04T07:43:58.854Z,62.03
2022-09-04T07:46:25.316Z,61.40
2022-09-04T07:48:51.735Z,59.85
2022-09-04T07:51:18.109Z,59.00
2022-09-04T07:53:44.570Z,58.50
2022-09-04T07:56:11.016Z,57.32
2022-09-04T07:58:37.454Z,56.24
2022-09-04T08:01:03.892Z,55.38
2022-09-04T08:03:30.208Z,54.24
2022-09-04T08:05:56.575Z,53.54
2022-09-04T08:08:23.006Z,52.99
2022-09-04T08:10:49.310Z,53.12
2022-09-04T08:13:15.707Z,53.01
2022-09-04T08:15:42.877Z,52.46
2022-09-04T08:18:08.531Z,51.68
2022-09-04T08:20:34.874Z,51.55
2022-09-04T08:23:01.267Z,50.66
2022-09-04T08:25:27.666Z,50.36
2022-09-04T08:27:54.126Z,50.47
2022-09-04T08:30:20.566Z,50.81
2022-09-04T08:32:46.952Z,49.86
2022-09-04T08:35:13.333Z,50.44
2022-09-04T08:37:39.730Z,50.32
2022-09-04T08:40:06.138Z,49.21
2022-09-04T08:42:32.476Z,49.59
2022-09-04T08:44:58.960Z,48.24
2022-09-04T08:47:25.324Z,47.47
2022-09-04T08:49:51.733Z,47.73
2022-09-04T08:52:18.121Z,47.78
2022-09-04T08:54:44.484Z,47.04
2022-09-04T08:57:10.854Z,47.48
2022-09-04T08:59:37.233Z,47.71
2022-09-04T09:02:04.229Z,47.32
2022-09-04T09:04:30.620Z,47.36
2022-09-04T09:06:57.054Z,46.98
2022-09-04T09:09:23.494Z,46.65
2022-09-04T09:11:49.859Z,45.12
2022-09-04T09:14:16.254Z,44.70
2022-09-04T09:16:42.815Z,45.17
2022-09-04T09:19:09.114Z,45.67
2022-09-04T09:21:35.480Z,43.55
2022-09-04T09:24:01.901Z,43.07
2022-09-04T09:26:28.344Z,42.12
2022-09-04T09:28:55.023Z,42.08
2022-09-04T09:31:21.496Z,42.97
2022-09-04T09:33:47.766Z,42.12
2022-09-04T09:36:14.131Z,42.46
2022-09-04T09:38:40.531Z,41.94
2022-09-04T09:41:06.907Z,41.59
2022-09-04T09:43:33.344Z,41.78
2022-09-04T09:45:59.829Z,41.77
2022-09-04T09:48:26.215Z,41.95
2022-09-04T09:50:52.649Z,41.75
2022-09-04T09:53:19.106Z,41.43
2022-09-04T09:55:45.415Z,40.16
2022-09-04T09:58:11.794Z,41.07
2022-09-04T10:00:38.216Z,41.64
2022-09-04T10:03:04.575Z,42.26
2022-09-04T10:05:30.944Z,47.26
2022-09-04T10:07:57.321Z,48.31
2022-09-04T10:10:23.807Z,46.89
2022-09-04T10:12:50.190Z,47.81
2022-09-04T10:15:16.711Z,50.40
2022-09-04T10:17:43.109Z,45.70
2022-09-04T10:20:09.534Z,46.50
2022-09-04T10:22:35.932Z,46.33
2022-09-04T10:25:02.329Z,46.07
2022-09-04T10:27:28.738Z,48.38
2022-09-04T10:29:55.147Z,48.83
2022-09-04T10:32:21.527Z,46.83
2022-09-04T10:34:47.888Z,48.05
2022-09-04T10:37:14.275Z,46.85
2022-09-04T10:39:40.780Z,49.36
2022-09-04T10:42:07.051Z,50.13
2022-09-04T10:44:33.561Z,48.41
2022-09-04T10:46:59.928Z,47.11
2022-09-04T10:49:26.322Z,47.14
2022-09-04T10:51:52.751Z,48.81
2022-09-04T10:54:19.158Z,48.70
2022-09-04T10:56:45.629Z,45.90
2022-09-04T10:59:11.999Z,46.07
2022-09-04T11:01:38.438Z,46.08
2022-09-04T11:04:04.781Z,44.99
2022-09-04T11:06:31.163Z,45.03
2022-09-04T11:08:57.529Z,45.86
2022-09-04T11:11:24.018Z,46.33
2022-09-04T11:13:51.595Z,45.05
2022-09-04T11:16:16.931Z,44.74
2022-09-04T11:18:43.258Z,45.52
2022-09-04T11:21:09.611Z,45.62
2022-09-04T11:23:36.035Z,43.68
2022-09-04T11:26:02.413Z,43.60
2022-09-04T11:28:28.800Z,43.31
2022-09-04T11:30:55.271Z,43.68
2022-09-04T11:33:21.658Z,42.83
2022-09-04T11:35:48.146Z,42.52
2022-09-04T11:38:14.538Z,43.22
2022-09-04T11:40:40.926Z,43.80
2022-09-04T11:43:07.296Z,42.99
2022-09-04T11:45:33.814Z,43.63
2022-09-04T11:48:00.155Z,43.17
2022-09-04T11:50:26.643Z,41.75
2022-09-04T11:52:53.075Z,42.75
2022-09-04T11:55:19.435Z,43.16
2022-09-04T11:57:45.826Z,41.99
2022-09-04T12:00:12.210Z,42.03
2022-09-04T12:02:38.728Z,41.11
2022-09-04T12:05:05.157Z,40.41
2022-09-04T12:07:39.369Z,41.42
2022-09-04T12:09:57.952Z,41.02
2022-09-04T12:12:24.315Z,40.41
2022-09-04T12:14:50.678Z,40.87
2022-09-04T12:17:17.192Z,40.08
2022-09-04T12:19:43.575Z,40.16
2022-09-04T12:22:09.937Z,39.46
2022-09-04T12:24:36.334Z,40.37
2022-09-04T12:27:02.719Z,39.48
2022-09-04T12:29:29.081Z,39.80
2022-09-04T12:31:55.532Z,39.59
2022-09-04T12:34:21.843Z,40.54
2022-09-04T12:36:48.210Z,40.08
2022-09-04T12:39:14.581Z,40.02
2022-09-04T12:41:40.968Z,39.50
2022-09-04T12:44:07.374Z,39.89
2022-09-04T12:46:33.788Z,40.04
2022-09-04T12:49:00.184Z,40.03
2022-09-04T12:51:26.585Z,40.57
2022-09-04T12:53:53.160Z,39.95
2022-09-04T12:56:19.299Z,39.59
2022-09-04T12:58:45.732Z,39.75
2022-09-04T13:01:12.185Z,39.64
2022-09-04T13:03:38.504Z,39.58
2022-09-04T13:06:04.949Z,39.44
2022-09-04T13:08:31.464Z,39.82
2022-09-04T13:10:58.074Z,39.72
2022-09-04T13:13:25.134Z,39.55
2022-09-04T13:15:50.991Z,40.25
2022-09-04T13:18:17.198Z,39.35
2022-09-04T13:20:43.805Z,39.70
2022-09-04T13:23:11.106Z,39.67
2022-09-04T13:25:36.593Z,40.08
2022-09-04T13:28:02.975Z,40.93
2022-09-04T13:30:29.341Z,41.43
2022-09-04T13:32:55.741Z,41.06
2022-09-04T13:35:22.129Z,41.94
2022-09-04T13:37:48.494Z,41.96
2022-09-04T13:40:14.858Z,42.61
2022-09-04T13:42:42.606Z,42.99
2022-09-04T13:45:07.668Z,42.83
2022-09-04T13:47:34.045Z,43.47
2022-09-04T13:50:00.452Z,43.61
2022-09-04T13:52:26.818Z,43.58
2022-09-04T13:54:53.188Z,43.20
2022-09-04T13:57:19.565Z,43.39
2022-09-04T13:59:45.942Z,43.54
2022-09-04T14:02:12.294Z,43.79
2022-09-04T14:04:38.835Z,43.97
2022-09-04T14:07:05.189Z,43.87
2022-09-04T14:09:31.548Z,43.98
2022-09-04T14:11:57.925Z,44.46
2022-09-04T14:14:24.312Z,44.49
2022-09-04T14:16:50.819Z,44.76
2022-09-04T14:19:17.220Z,44.72
2022-09-04T14:21:43.596Z,44.53
2022-09-04T14:24:10.091Z,44.85
2022-09-04T14:26:36.478Z,45.05
2022-09-04T14:29:02.837Z,45.12
2022-09-04T14:31:29.329Z,45.48
2022-09-04T14:33:55.656Z,45.40
2022-09-04T14:36:22.024Z,45.63
2022-09-04T14:38:48.475Z,45.83
2022-09-04T14:41:14.846Z,46.22
2022-09-04T14:43:41.237Z,46.52
2022-09-04T14:46:07.669Z,46.45
2022-09-04T14:48:34.018Z,46.72
2022-09-04T14:51:00.383Z,46.73
2022-09-04T14:53:26.866Z,46.85
2022-09-04T14:55:53.249Z,47.06
2022-09-04T14:58:19.791Z,47.06
2022-09-04T15:00:46.002Z,47.48
2022-09-04T15:03:12.550Z,47.44
2022-09-04T15:05:38.886Z,47.04
2022-09-04T15:08:05.239Z,47.85
2022-09-04T15:10:31.693Z,48.30
2022-09-04T15:12:58.077Z,48.54
2022-09-04T15:15:24.440Z,48.21
2022-09-04T15:17:50.889Z,48.32
2022-09-04T15:20:17.323Z,48.26
2022-09-04T15:22:43.707Z,49.11
2022-09-04T15:25:10.108Z,49.45
2022-09-04T15:27:36.485Z,49.69
2022-09-04T15:30:02.849Z,50.06
2022-09-04T15:32:29.221Z,50.65
2022-09-04T15:34:55.610Z,50.61
2022-09-04T15:37:21.974Z,51.09
2022-09-04T15:39:48.408Z,51.49
2022-09-04T15:42:14.811Z,51.41
2022-09-04T15:44:41.246Z,51.88
2022-09-04T15:47:07.625Z,51.81
2022-09-04T15:49:33.996Z,52.61
2022-09-04T15:52:00.376Z,52.77
2022-09-04T15:54:26.740Z,53.04
2022-09-04T15:56:53.099Z,53.44
2022-09-04T15:59:19.474Z,53.50
2022-09-04T16:01:45.883Z,54.00
2022-09-04T16:04:12.228Z,53.91
2022-09-04T16:06:38.609Z,54.21
2022-09-04T16:09:04.996Z,54.77
2022-09-04T16:11:31.354Z,54.48
2022-09-04T16:13:58.405Z,54.68
2022-09-04T16:16:24.174Z,55.35
2022-09-04T16:18:50.500Z,55.79
2022-09-04T16:21:16.867Z,56.22
2022-09-04T16:23:43.249Z,56.86
2022-09-04T16:26:09.694Z,57.38
2022-09-04T16:28:36.085Z,57.67
2022-09-04T16:31:02.541Z,58.76
2022-09-04T16:33:28.835Z,59.39
2022-09-04T16:35:55.316Z,60.08
2022-09-04T16:38:24.258Z,60.45
2022-09-04T16:40:48.067Z,60.52
2022-09-04T16:43:14.445Z,60.87
2022-09-04T16:45:40.808Z,61.20
2022-09-04T16:48:34.057Z,61.72
2022-09-04T16:50:33.601Z,62.15
2022-09-04T16:53:13.662Z,62.46
2022-09-04T16:55:26.346Z,62.71
2022-09-04T16:57:52.721Z,62.67
2022-09-04T17:00:19.134Z,62.83
2022-09-04T17:02:45.605Z,63.39
2022-09-04T17:05:11.902Z,63.66
2022-09-04T17:07:38.296Z,63.58
2022-09-04T17:10:04.698Z,63.98
2022-09-04T17:12:31.077Z,64.01
2022-09-04T17:14:57.439Z,63.99
2022-09-04T17:17:31.316Z,64.46
2022-09-04T17:19:50.270Z,64.70
2022-09-04T17:28:56.322Z,64.83
2022-09-04T17:29:02.553Z,64.96
2022-09-04T17:29:14.872Z,65.14
2022-09-04T17:29:39.509Z,65.74
2022-09-04T17:32:25.565Z,66.21
2022-09-04T17:40:33.033Z,66.62
2022-09-04T17:40:50.559Z,66.99
2022-09-04T17:40:55.961Z,67.24
2022-09-04T17:41:59.239Z,67.38
2022-09-04T17:44:14.236Z,67.86
2022-09-04T17:46:40.678Z,68.67
2022-09-04T17:49:06.983Z,69.03
2022-09-04T17:51:33.411Z,69.81
2022-09-04T17:53:59.771Z,70.02
2022-09-04T17:56:26.277Z,70.31
2022-09-04T17:58:52.631Z,70.36
2022-09-04T18:01:19.050Z,70.92
2022-09-04T18:03:46.005Z,71.54
2022-09-04T18:06:11.903Z,71.80
2022-09-04T18:08:38.269Z,72.37
2022-09-04T18:11:04.681Z,72.97
2022-09-04T18:13:37.967Z,73.37
2022-09-04T18:15:57.463Z,73.60
2022-09-04T18:18:25.166Z,73.31
2022-09-04T18:20:51.587Z,73.26
2022-09-04T18:23:16.604Z,73.31
2022-09-04T18:25:42.980Z,73.18
2022-09-04T18:28:12.236Z,72.69
2022-09-04T18:36:52.689Z,72.98
2022-09-04T18:37:12.024Z,73.15
2022-09-04T18:37:17.998Z,73.17
2022-09-04T18:37:55.122Z,73.58
2022-09-04T18:40:43.106Z,73.99
2022-09-04T18:50:22.703Z,74.29
2022-09-04T18:50:38.911Z,74.54
2022-09-04T18:50:50.533Z,74.67
2022-09-04T18:50:53.242Z,74.74
2022-09-04T18:52:33.495Z,74.87
2022-09-04T18:54:59.752Z,74.32
2022-09-04T18:57:26.464Z,73.68
2022-09-04T18:59:58.386Z,73.71
2022-09-04T19:02:19.281Z,73.34
2022-09-04T19:04:45.620Z,73.29
2022-09-04T19:07:12.007Z,73.23
2022-09-04T19:09:44.451Z,72.61
2022-09-04T19:12:04.750Z,72.26
2022-09-04T19:14:31.148Z,72.17
2022-09-04T19:16:57.548Z,72.12
2022-09-04T19:19:25.556Z,72.49
2022-09-04T19:21:57.643Z,73.15
2022-09-04T19:24:16.841Z,73.43
2022-09-04T19:26:43.198Z,74.04
2022-09-04T19:29:09.584Z,74.37
2022-09-04T19:31:35.997Z,74.41
2022-09-04T19:34:02.328Z,74.65
2022-09-04T19:36:30.900Z,74.93
2022-09-04T19:46:02.898Z,75.06
2022-09-04T19:46:05.611Z,75.07
2022-09-04T19:46:14.471Z,75.45
2022-09-04T19:46:33.354Z,75.71
2022-09-04T19:49:06.397Z,75.61
2022-09-04T19:53:24.321Z,75.60
2022-09-04T19:53:42.433Z,75.78
2022-09-04T19:56:00.099Z,76.12
2022-09-04T19:58:26.497Z,76.15
2022-09-04T20:00:52.921Z,76.21
2022-09-04T20:03:29.524Z,75.99
2022-09-04T20:05:45.623Z,75.74
2022-09-04T20:08:11.997Z,75.75
2022-09-04T20:10:38.453Z,75.92
2022-09-04T20:13:04.826Z,75.48
2022-09-04T20:15:31.893Z,75.36
2022-09-04T20:17:57.609Z,75.67
2022-09-04T20:20:23.973Z,75.78
2022-09-04T20:22:50.426Z,75.96
2022-09-04T20:25:16.852Z,76.54
2022-09-04T20:27:43.212Z,76.61
2022-09-04T20:30:09.618Z,76.81
2022-09-04T20:32:36.025Z,76.51
2022-09-04T20:35:14.028Z,76.39
2022-09-04T20:37:28.790Z,76.36
2022-09-04T20:39:55.240Z,76.45
2022-09-04T20:42:21.557Z,76.39
2022-09-04T20:47:23.047Z,76.02
2022-09-04T20:49:40.685Z,76.07
2022-09-04T20:52:44.971Z,76.16
2022-09-04T20:52:58.850Z,75.84
2022-09-04T20:54:33.501Z,76.24
2022-09-04T20:59:47.088Z,75.74
2022-09-04T21:03:14.935Z,75.41
2022-09-04T21:03:23.853Z,75.03
2022-09-04T21:04:31.406Z,74.76
2022-09-04T21:06:45.391Z,74.35
2022-09-04T21:09:11.754Z,74.15
2022-09-04T21:11:41.657Z,73.88
2022-09-04T21:14:04.534Z,74.10
2022-09-04T21:16:30.924Z,74.30
2022-09-04T21:19:28.033Z,74.84
2022-09-04T21:21:23.640Z,74.86
2022-09-04T21:24:03.822Z,75.35
2022-09-04T21:26:16.544Z,75.29
2022-09-04T21:28:42.942Z,75.37
2022-09-04T21:31:09.461Z,75.59
2022-09-04T21:33:36.882Z,75.93
2022-09-04T21:36:25.265Z,76.14
2022-09-04T21:38:28.530Z,76.04
2022-09-04T21:40:54.995Z,76.24
2022-09-04T21:43:21.368Z,76.56
2022-09-04T21:45:47.684Z,76.85
2022-09-04T21:48:18.281Z,76.90
2022-09-04T21:50:40.512Z,77.06
2022-09-04T21:53:06.872Z,76.89
2022-09-04T21:57:20.806Z,76.54
2022-09-04T22:02:31.711Z,76.56
2022-09-04T22:02:45.495Z,76.83
2022-09-04T22:02:59.382Z,77.03
2022-09-04T22:05:18.933Z,77.06
2022-09-04T22:10:21.632Z,77.08
2022-09-04T22:13:35.444Z,77.00
2022-09-04T22:13:39.708Z,76.76
2022-09-04T22:15:04.596Z,76.29
2022-09-04T22:17:30.951Z,75.95
2022-09-04T22:19:57.360Z,75.70
2022-09-04T22:22:23.738Z,75.47
2022-09-04T22:24:50.223Z,75.49
2022-09-04T22:27:16.658Z,75.21
2022-09-04T22:29:43.019Z,75.13
2022-09-04T22:32:09.980Z,75.04
2022-09-04T22:34:35.801Z,75.39
2022-09-04T22:37:02.287Z,75.55
2022-09-04T22:39:31.724Z,75.80
2022-09-04T22:41:55.046Z,75.46
2022-09-04T22:44:21.434Z,75.97
2022-09-04T22:46:47.970Z,76.28
2022-09-04T22:49:14.342Z,76.28
2022-09-04T22:51:40.699Z,76.57
2022-09-04T22:54:07.083Z,76.32
2022-09-04T22:56:33.483Z,76.56
2022-09-04T22:59:22.554Z,76.51
2022-09-04T23:01:26.347Z,75.93
2022-09-04T23:03:52.747Z,75.90
2022-09-04T23:08:13.559Z,76.35
2022-09-04T23:13:46.380Z,76.79
2022-09-04T23:13:48.099Z,76.77
2022-09-04T23:13:58.275Z,75.63
2022-09-04T23:16:04.795Z,75.82
2022-09-04T23:24:56.536Z,75.27
2022-09-04T23:26:36.924Z,74.59
2022-09-04T23:26:53.271Z,73.31
2022-09-04T23:26:53.817Z,73.89
2022-09-04T23:28:28.070Z,73.29
2022-09-04T23:30:43.237Z,72.54
2022-09-04T23:33:09.625Z,72.37
2022-09-04T23:35:36.020Z,72.44
2022-09-04T23:38:02.384Z,72.68
2022-09-04T23:40:28.745Z,73.15
2022-09-04T23:42:55.133Z,73.37
2022-09-04T23:45:21.513Z,74.13
2022-09-04T23:47:49.456Z,73.42
2022-09-04T23:50:14.275Z,73.87
2022-09-04T23:52:46.271Z,73.95
2022-09-04T23:55:07.062Z,74.30
2022-09-04T23:57:33.554Z,74.32
2022-09-04T23:59:59.937Z,73.23
